sensor_id;sensor_type;location;lat;lon;timestamp;pressure;altitude;pressure_sealevel;temperature;humidity
10135;BME280;5107;48.850;8.924;2023-04-10T00:01:13;97375.31;;;6.77;63.61
10135;BME280;5107;48.850;8.924;2023-04-10T00:03:38;97367.47;;;6.77;63.82
10135;BME280;5107;48.850;8.924;2023-04-10T00:06:04;97370.38;;;6.83;63.90
10135;BME280;5107;48.850;8.924;2023-04-10T00:08:30;97367.53;;;6.66;64.01
10135;BME280;5107;48.850;8.924;2023-04-10T00:10:55;97367.16;;;6.50;64.57
10135;BME280;5107;48.850;8.924;2023-04-10T00:13:21;97369.84;;;6.38;65.58
10135;BME280;5107;48.850;8.924;2023-04-10T00:15:46;97356.84;;;6.27;66.11
10135;BME280;5107;48.850;8.924;2023-04-10T00:18:11;97360.28;;;6.48;65.13
10135;BME280;5107;48.850;8.924;2023-04-10T00:20:37;97351.38;;;6.51;65.23
10135;BME280;5107;48.850;8.924;2023-04-10T00:23:02;97351.53;;;6.59;64.89
10135;BME280;5107;48.850;8.924;2023-04-10T00:25:28;97357.31;;;6.63;64.32
10135;BME280;5107;48.850;8.924;2023-04-10T00:27:53;97349.00;;;6.48;64.76
10135;BME280;5107;48.850;8.924;2023-04-10T00:30:18;97345.84;;;6.54;64.82
10135;BME280;5107;48.850;8.924;2023-04-10T00:32:45;97343.31;;;6.64;64.10
10135;BME280;5107;48.850;8.924;2023-04-10T00:35:10;97340.69;;;6.64;64.40
10135;BME280;5107;48.850;8.924;2023-04-10T00:37:36;97333.31;;;6.69;63.79
10135;BME280;5107;48.850;8.924;2023-04-10T00:40:01;97335.72;;;6.61;64.07
10135;BME280;5107;48.850;8.924;2023-04-10T00:42:27;97341.84;;;6.50;64.67
10135;BME280;5107;48.850;8.924;2023-04-10T00:44:52;97334.47;;;6.34;65.46
10135;BME280;5107;48.850;8.924;2023-04-10T00:47:17;97333.56;;;6.24;65.90
10135;BME280;5107;48.850;8.924;2023-04-10T00:49:43;97331.47;;;6.18;65.57
10135;BME280;5107;48.850;8.924;2023-04-10T00:52:09;97334.97;;;6.07;66.12
10135;BME280;5107;48.850;8.924;2023-04-10T00:54:35;97337.50;;;5.98;66.98
10135;BME280;5107;48.850;8.924;2023-04-10T00:57:01;97332.91;;;5.90;66.59
10135;BME280;5107;48.850;8.924;2023-04-10T00:59:27;97330.19;;;5.92;66.82
10135;BME280;5107;48.850;8.924;2023-04-10T01:01:53;97337.31;;;5.79;67.74
10135;BME280;5107;48.850;8.924;2023-04-10T01:04:19;97339.09;;;5.78;67.94
10135;BME280;5107;48.850;8.924;2023-04-10T01:07:03;97340.50;;;5.82;67.63
10135;BME280;5107;48.850;8.924;2023-04-10T01:09:55;97344.63;;;5.96;67.48
10135;BME280;5107;48.850;8.924;2023-04-10T01:15:34;97338.84;;;6.13;66.67
10135;BME280;5107;48.850;8.924;2023-04-10T01:18:09;97337.16;;;6.23;66.14
10135;BME280;5107;48.850;8.924;2023-04-10T01:20:37;97343.69;;;6.38;65.29
10135;BME280;5107;48.850;8.924;2023-04-10T01:26:03;97339.00;;;6.32;65.09
10135;BME280;5107;48.850;8.924;2023-04-10T01:28:56;97340.97;;;6.19;66.21
10135;BME280;5107;48.850;8.924;2023-04-10T01:34:04;97335.59;;;6.00;66.97
10135;BME280;5107;48.850;8.924;2023-04-10T01:36:37;97337.50;;;5.87;67.49
10135;BME280;5107;48.850;8.924;2023-04-10T01:39:04;97336.75;;;5.75;68.15
10135;BME280;5107;48.850;8.924;2023-04-10T01:41:31;97333.44;;;5.62;68.14
10135;BME280;5107;48.850;8.924;2023-04-10T01:43:58;97332.28;;;5.55;69.17
10135;BME280;5107;48.850;8.924;2023-04-10T01:46:27;97332.91;;;5.36;69.85
10135;BME280;5107;48.850;8.924;2023-04-10T01:48:54;97335.31;;;5.28;69.41
10135;BME280;5107;48.850;8.924;2023-04-10T01:51:21;97332.38;;;5.21;70.29
10135;BME280;5107;48.850;8.924;2023-04-10T01:53:47;97331.91;;;5.16;71.11
10135;BME280;5107;48.850;8.924;2023-04-10T01:56:13;97335.69;;;5.12;71.08
10135;BME280;5107;48.850;8.924;2023-04-10T01:58:39;97334.13;;;5.32;70.52
10135;BME280;5107;48.850;8.924;2023-04-10T02:01:05;97331.84;;;5.39;69.93
10135;BME280;5107;48.850;8.924;2023-04-10T02:03:31;97334.47;;;5.39;70.15
10135;BME280;5107;48.850;8.924;2023-04-10T02:08:35;97330.28;;;5.58;68.80
10135;BME280;5107;48.850;8.924;2023-04-10T02:11:31;97329.78;;;5.53;69.33
10135;BME280;5107;48.850;8.924;2023-04-10T02:14:03;97329.69;;;5.55;69.38
10135;BME280;5107;48.850;8.924;2023-04-10T02:16:31;97330.81;;;5.30;69.71
10135;BME280;5107;48.850;8.924;2023-04-10T02:18:58;97328.91;;;5.21;70.50
10135;BME280;5107;48.850;8.924;2023-04-10T02:21:24;97332.13;;;5.24;70.29
10135;BME280;5107;48.850;8.924;2023-04-10T02:23:51;97333.19;;;5.33;70.16
10135;BME280;5107;48.850;8.924;2023-04-10T02:26:16;97327.25;;;5.20;70.52
10135;BME280;5107;48.850;8.924;2023-04-10T02:28:41;97327.53;;;5.17;69.90
10135;BME280;5107;48.850;8.924;2023-04-10T02:31:07;97324.31;;;5.13;70.79
10135;BME280;5107;48.850;8.924;2023-04-10T02:33:32;97331.19;;;5.03;71.01
10135;BME280;5107;48.850;8.924;2023-04-10T02:35:59;97324.81;;;4.96;71.55
10135;BME280;5107;48.850;8.924;2023-04-10T02:38:25;97326.69;;;4.94;71.87
10135;BME280;5107;48.850;8.924;2023-04-10T02:40:50;97332.03;;;4.81;72.61
10135;BME280;5107;48.850;8.924;2023-04-10T02:43:15;97332.03;;;4.81;72.37
10135;BME280;5107;48.850;8.924;2023-04-10T02:45:41;97339.03;;;4.70;72.68
10135;BME280;5107;48.850;8.924;2023-04-10T02:48:06;97333.94;;;4.57;73.08
10135;BME280;5107;48.850;8.924;2023-04-10T02:50:32;97340.06;;;4.45;73.76
10135;BME280;5107;48.850;8.924;2023-04-10T02:52:57;97334.13;;;4.32;73.48
10135;BME280;5107;48.850;8.924;2023-04-10T02:55:23;97327.97;;;4.33;72.80
10135;BME280;5107;48.850;8.924;2023-04-10T02:57:48;97333.66;;;4.27;73.06
10135;BME280;5107;48.850;8.924;2023-04-10T03:00:14;97328.31;;;4.17;73.08
10135;BME280;5107;48.850;8.924;2023-04-10T03:02:39;97330.97;;;4.04;74.04
10135;BME280;5107;48.850;8.924;2023-04-10T03:05:05;97328.63;;;4.12;75.21
10135;BME280;5107;48.850;8.924;2023-04-10T03:07:32;97318.47;;;4.09;75.09
10135;BME280;5107;48.850;8.924;2023-04-10T03:09:58;97325.19;;;4.01;75.40
10135;BME280;5107;48.850;8.924;2023-04-10T03:12:23;97327.66;;;4.02;75.78
10135;BME280;5107;48.850;8.924;2023-04-10T03:14:48;97319.47;;;3.96;75.72
10135;BME280;5107;48.850;8.924;2023-04-10T03:17:14;97315.22;;;3.95;76.04
10135;BME280;5107;48.850;8.924;2023-04-10T03:19:39;97316.88;;;3.96;75.84
10135;BME280;5107;48.850;8.924;2023-04-10T03:22:04;97318.63;;;3.84;75.11
10135;BME280;5107;48.850;8.924;2023-04-10T03:24:30;97320.50;;;3.82;74.77
10135;BME280;5107;48.850;8.924;2023-04-10T03:26:55;97314.31;;;3.72;74.95
10135;BME280;5107;48.850;8.924;2023-04-10T03:29:21;97319.88;;;3.67;74.48
10135;BME280;5107;48.850;8.924;2023-04-10T03:31:46;97313.31;;;3.62;75.64
10135;BME280;5107;48.850;8.924;2023-04-10T03:34:11;97307.13;;;3.52;76.26
10135;BME280;5107;48.850;8.924;2023-04-10T03:36:37;97307.63;;;3.57;76.35
10135;BME280;5107;48.850;8.924;2023-04-10T03:39:02;97304.81;;;3.60;76.72
10135;BME280;5107;48.850;8.924;2023-04-10T03:41:27;97301.69;;;3.55;76.83
10135;BME280;5107;48.850;8.924;2023-04-10T03:43:53;97298.88;;;3.58;77.27
10135;BME280;5107;48.850;8.924;2023-04-10T03:46:18;97301.97;;;3.63;76.99
10135;BME280;5107;48.850;8.924;2023-04-10T03:48:43;97297.50;;;3.65;76.69
10135;BME280;5107;48.850;8.924;2023-04-10T03:51:09;97297.09;;;3.82;76.54
10135;BME280;5107;48.850;8.924;2023-04-10T03:53:34;97291.31;;;3.90;76.14
10135;BME280;5107;48.850;8.924;2023-04-10T03:56:01;97289.09;;;4.07;75.33
10135;BME280;5107;48.850;8.924;2023-04-10T03:58:27;97283.81;;;4.31;73.96
10135;BME280;5107;48.850;8.924;2023-04-10T04:00:52;97283.47;;;4.58;73.10
10135;BME280;5107;48.850;8.924;2023-04-10T04:03:18;97274.00;;;4.57;72.59
10135;BME280;5107;48.850;8.924;2023-04-10T04:05:43;97272.94;;;4.48;72.80
10135;BME280;5107;48.850;8.924;2023-04-10T04:08:08;97275.44;;;4.50;72.92
10135;BME280;5107;48.850;8.924;2023-04-10T04:10:34;97267.84;;;4.58;72.48
10135;BME280;5107;48.850;8.924;2023-04-10T04:12:59;97277.56;;;4.67;71.11
10135;BME280;5107;48.850;8.924;2023-04-10T04:15:24;97265.72;;;4.63;71.95
10135;BME280;5107;48.850;8.924;2023-04-10T04:17:50;97257.41;;;4.69;71.75
10135;BME280;5107;48.850;8.924;2023-04-10T04:20:15;97267.13;;;4.67;71.91
10135;BME280;5107;48.850;8.924;2023-04-10T04:22:40;97273.53;;;4.74;73.52
10135;BME280;5107;48.850;8.924;2023-04-10T04:25:07;97271.41;;;5.33;81.01
10135;BME280;5107;48.850;8.924;2023-04-10T04:27:35;97271.31;;;5.88;79.33
10135;BME280;5107;48.850;8.924;2023-04-10T04:30:00;97268.50;;;6.21;77.49
10135;BME280;5107;48.850;8.924;2023-04-10T04:32:26;97264.59;;;6.36;74.19
10135;BME280;5107;48.850;8.924;2023-04-10T04:34:52;97275.06;;;6.67;75.18
10135;BME280;5107;48.850;8.924;2023-04-10T04:37:17;97271.59;;;6.97;73.10
10135;BME280;5107;48.850;8.924;2023-04-10T04:39:42;97276.19;;;7.14;71.43
10135;BME280;5107;48.850;8.924;2023-04-10T04:42:08;97274.38;;;7.14;71.29
10135;BME280;5107;48.850;8.924;2023-04-10T04:44:34;97277.69;;;7.07;70.13
10135;BME280;5107;48.850;8.924;2023-04-10T04:46:59;97266.31;;;6.77;65.96
10135;BME280;5107;48.850;8.924;2023-04-10T04:49:24;97276.56;;;6.39;65.41
10135;BME280;5107;48.850;8.924;2023-04-10T04:51:50;97269.03;;;6.15;66.32
10135;BME280;5107;48.850;8.924;2023-04-10T04:54:15;97279.28;;;6.07;66.36
10135;BME280;5107;48.850;8.924;2023-04-10T04:56:40;97280.94;;;6.08;66.57
10135;BME280;5107;48.850;8.924;2023-04-10T04:59:06;97290.16;;;6.12;65.75
10135;BME280;5107;48.850;8.924;2023-04-10T05:01:31;97293.34;;;5.95;65.87
10135;BME280;5107;48.850;8.924;2023-04-10T05:03:57;97293.22;;;5.96;66.21
10135;BME280;5107;48.850;8.924;2023-04-10T05:06:22;97288.63;;;6.30;65.48
10135;BME280;5107;48.850;8.924;2023-04-10T05:08:47;97295.00;;;6.98;62.49
10135;BME280;5107;48.850;8.924;2023-04-10T05:11:12;97296.47;;;7.41;61.95
10135;BME280;5107;48.850;8.924;2023-04-10T05:13:38;97284.94;;;7.82;59.00
10135;BME280;5107;48.850;8.924;2023-04-10T05:16:03;97291.84;;;7.92;58.58
10135;BME280;5107;48.850;8.924;2023-04-10T05:18:29;97287.56;;;7.91;58.31
10135;BME280;5107;48.850;8.924;2023-04-10T05:20:54;97290.31;;;7.90;58.10
10135;BME280;5107;48.850;8.924;2023-04-10T05:23:20;97290.47;;;7.69;58.79
10135;BME280;5107;48.850;8.924;2023-04-10T05:25:45;97297.84;;;7.45;59.72
10135;BME280;5107;48.850;8.924;2023-04-10T05:28:10;97295.22;;;7.45;60.22
10135;BME280;5107;48.850;8.924;2023-04-10T05:30:36;97291.81;;;7.73;59.35
10135;BME280;5107;48.850;8.924;2023-04-10T05:33:01;97286.84;;;7.70;59.60
10135;BME280;5107;48.850;8.924;2023-04-10T05:35:27;97287.63;;;7.22;60.91
10135;BME280;5107;48.850;8.924;2023-04-10T05:37:52;97294.34;;;7.06;61.69
10135;BME280;5107;48.850;8.924;2023-04-10T05:40:17;97293.53;;;6.75;62.16
10135;BME280;5107;48.850;8.924;2023-04-10T05:42:43;97294.25;;;6.77;62.05
10135;BME280;5107;48.850;8.924;2023-04-10T05:45:08;97299.25;;;6.90;62.78
10135;BME280;5107;48.850;8.924;2023-04-10T05:47:34;97303.09;;;6.85;62.71
10135;BME280;5107;48.850;8.924;2023-04-10T05:49:59;97303.22;;;6.84;62.32
10135;BME280;5107;48.850;8.924;2023-04-10T05:52:24;97301.63;;;7.02;62.28
10135;BME280;5107;48.850;8.924;2023-04-10T05:54:49;97302.47;;;7.03;61.91
10135;BME280;5107;48.850;8.924;2023-04-10T05:57:16;97300.88;;;7.31;61.10
10135;BME280;5107;48.850;8.924;2023-04-10T05:59:41;97303.22;;;7.34;61.13
10135;BME280;5107;48.850;8.924;2023-04-10T06:02:06;97298.72;;;7.65;60.53
10135;BME280;5107;48.850;8.924;2023-04-10T06:04:32;97304.22;;;7.81;59.41
10135;BME280;5107;48.850;8.924;2023-04-10T06:06:57;97305.19;;;7.51;61.93
10135;BME280;5107;48.850;8.924;2023-04-10T06:09:22;97305.47;;;7.67;61.84
10135;BME280;5107;48.850;8.924;2023-04-10T06:11:48;97311.13;;;7.72;61.46
10135;BME280;5107;48.850;8.924;2023-04-10T06:14:13;97301.06;;;7.96;61.08
10135;BME280;5107;48.850;8.924;2023-04-10T06:16:38;97304.78;;;8.32;59.14
10135;BME280;5107;48.850;8.924;2023-04-10T06:19:04;97306.31;;;8.72;57.59
10135;BME280;5107;48.850;8.924;2023-04-10T06:21:29;97304.25;;;8.75;57.44
10135;BME280;5107;48.850;8.924;2023-04-10T06:23:55;97301.66;;;8.66;58.43
10135;BME280;5107;48.850;8.924;2023-04-10T06:26:22;97294.44;;;8.78;57.09
10135;BME280;5107;48.850;8.924;2023-04-10T06:28:48;97296.50;;;9.11;56.41
10135;BME280;5107;48.850;8.924;2023-04-10T06:31:14;97288.25;;;9.86;53.24
10135;BME280;5107;48.850;8.924;2023-04-10T06:33:39;97293.34;;;9.52;53.31
10135;BME280;5107;48.850;8.924;2023-04-10T06:36:05;97294.50;;;10.73;50.85
10135;BME280;5107;48.850;8.924;2023-04-10T06:38:30;97291.84;;;11.57;49.47
10135;BME280;5107;48.850;8.924;2023-04-10T06:40:58;97286.19;;;12.42;46.56
10135;BME280;5107;48.850;8.924;2023-04-10T06:43:23;97285.19;;;13.15;44.44
10135;BME280;5107;48.850;8.924;2023-04-10T06:45:48;97281.09;;;13.43;44.23
10135;BME280;5107;48.850;8.924;2023-04-10T06:48:14;97290.34;;;12.92;44.15
10135;BME280;5107;48.850;8.924;2023-04-10T06:50:39;97286.66;;;13.09;43.76
10135;BME280;5107;48.850;8.924;2023-04-10T06:53:05;97277.38;;;13.29;43.44
10135;BME280;5107;48.850;8.924;2023-04-10T06:55:30;97273.28;;;13.11;44.08
10135;BME280;5107;48.850;8.924;2023-04-10T06:57:56;97268.03;;;13.03;44.13
10135;BME280;5107;48.850;8.924;2023-04-10T07:00:22;97273.03;;;13.37;43.36
10135;BME280;5107;48.850;8.924;2023-04-10T07:02:47;97269.94;;;13.56;43.01
10135;BME280;5107;48.850;8.924;2023-04-10T07:05:13;97277.47;;;12.89;44.65
10135;BME280;5107;48.850;8.924;2023-04-10T07:07:38;97278.28;;;11.77;47.34
10135;BME280;5107;48.850;8.924;2023-04-10T07:10:04;97276.28;;;12.36;46.49
10135;BME280;5107;48.850;8.924;2023-04-10T07:12:31;97278.81;;;12.93;44.98
10135;BME280;5107;48.850;8.924;2023-04-10T07:14:56;97280.56;;;13.17;44.39
10135;BME280;5107;48.850;8.924;2023-04-10T07:17:21;97272.25;;;13.28;43.20
10135;BME280;5107;48.850;8.924;2023-04-10T07:19:47;97266.47;;;13.24;42.98
10135;BME280;5107;48.850;8.924;2023-04-10T07:22:12;97272.25;;;13.59;43.09
10135;BME280;5107;48.850;8.924;2023-04-10T07:24:38;97273.78;;;13.76;41.94
10135;BME280;5107;48.850;8.924;2023-04-10T07:27:04;97274.72;;;13.83;41.72
10135;BME280;5107;48.850;8.924;2023-04-10T07:29:29;97276.28;;;13.78;41.75
10135;BME280;5107;48.850;8.924;2023-04-10T07:31:55;97275.13;;;12.31;45.08
10135;BME280;5107;48.850;8.924;2023-04-10T07:34:20;97274.44;;;13.16;44.51
10135;BME280;5107;48.850;8.924;2023-04-10T07:36:45;97270.06;;;13.32;43.76
10135;BME280;5107;48.850;8.924;2023-04-10T07:39:11;97274.06;;;13.81;43.12
10135;BME280;5107;48.850;8.924;2023-04-10T07:41:36;97275.78;;;13.74;43.32
10135;BME280;5107;48.850;8.924;2023-04-10T07:44:02;97279.97;;;13.91;41.29
10135;BME280;5107;48.850;8.924;2023-04-10T07:46:27;97278.19;;;14.06;41.66
10135;BME280;5107;48.850;8.924;2023-04-10T07:48:52;97278.84;;;12.77;43.09
10135;BME280;5107;48.850;8.924;2023-04-10T07:51:19;97274.97;;;12.08;44.59
10135;BME280;5107;48.850;8.924;2023-04-10T07:53:45;97282.22;;;12.46;44.44
10135;BME280;5107;48.850;8.924;2023-04-10T07:56:14;97268.50;;;11.62;43.96
10135;BME280;5107;48.850;8.924;2023-04-10T07:58:40;97262.06;;;11.64;44.46
10135;BME280;5107;48.850;8.924;2023-04-10T08:01:05;97269.03;;;12.06;44.65
10135;BME280;5107;48.850;8.924;2023-04-10T08:03:37;97267.38;;;12.37;43.82
10135;BME280;5107;48.850;8.924;2023-04-10T08:06:02;97260.59;;;11.62;45.15
10135;BME280;5107;48.850;8.924;2023-04-10T08:08:28;97270.38;;;12.02;44.86
10135;BME280;5107;48.850;8.924;2023-04-10T08:10:53;97267.41;;;12.29;44.48
10135;BME280;5107;48.850;8.924;2023-04-10T08:13:18;97260.63;;;12.98;43.86
10135;BME280;5107;48.850;8.924;2023-04-10T08:15:44;97261.53;;;13.29;42.30
10135;BME280;5107;48.850;8.924;2023-04-10T08:18:09;97255.25;;;13.31;41.77
10135;BME280;5107;48.850;8.924;2023-04-10T08:20:34;97261.94;;;13.41;41.76
10135;BME280;5107;48.850;8.924;2023-04-10T08:23:01;97259.41;;;13.48;41.29
10135;BME280;5107;48.850;8.924;2023-04-10T08:25:26;97261.56;;;13.52;41.55
10135;BME280;5107;48.850;8.924;2023-04-10T08:27:52;97265.53;;;13.79;41.66
10135;BME280;5107;48.850;8.924;2023-04-10T08:30:17;97265.09;;;13.90;40.92
10135;BME280;5107;48.850;8.924;2023-04-10T08:32:42;97259.91;;;13.74;41.67
10135;BME280;5107;48.850;8.924;2023-04-10T08:35:08;97261.63;;;13.90;42.33
10135;BME280;5107;48.850;8.924;2023-04-10T08:37:33;97248.88;;;13.93;42.63
10135;BME280;5107;48.850;8.924;2023-04-10T08:39:59;97250.28;;;14.04;42.79
10135;BME280;5107;48.850;8.924;2023-04-10T08:42:24;97254.97;;;14.54;42.38
10135;BME280;5107;48.850;8.924;2023-04-10T08:44:51;97254.25;;;14.90;40.93
10135;BME280;5107;48.850;8.924;2023-04-10T08:47:19;97256.22;;;13.83;41.46
10135;BME280;5107;48.850;8.924;2023-04-10T08:49:56;97261.47;;;13.38;41.55
10135;BME280;5107;48.850;8.924;2023-04-10T08:52:28;97267.53;;;12.99;42.08
10135;BME280;5107;48.850;8.924;2023-04-10T08:54:56;97252.94;;;13.27;42.71
10135;BME280;5107;48.850;8.924;2023-04-10T08:57:23;97258.13;;;13.97;40.74
10135;BME280;5107;48.850;8.924;2023-04-10T08:59:49;97255.25;;;14.45;39.66
10135;BME280;5107;48.850;8.924;2023-04-10T09:02:18;97250.63;;;14.01;37.60
10135;BME280;5107;48.850;8.924;2023-04-10T09:04:49;97253.53;;;14.29;38.19
10135;BME280;5107;48.850;8.924;2023-04-10T09:07:15;97247.66;;;14.41;36.78
10135;BME280;5107;48.850;8.924;2023-04-10T09:09:41;97242.31;;;14.64;35.69
10135;BME280;5107;48.850;8.924;2023-04-10T09:12:07;97250.69;;;15.12;36.35
10135;BME280;5107;48.850;8.924;2023-04-10T09:14:33;97247.94;;;15.20;35.96
10135;BME280;5107;48.850;8.924;2023-04-10T09:19:44;97230.69;;;14.65;37.02
10135;BME280;5107;48.850;8.924;2023-04-10T09:22:11;97227.13;;;15.02;35.20
10135;BME280;5107;48.850;8.924;2023-04-10T09:24:37;97223.88;;;14.33;36.56
10135;BME280;5107;48.850;8.924;2023-04-10T09:27:04;97216.53;;;14.58;37.00
10135;BME280;5107;48.850;8.924;2023-04-10T09:29:44;97212.13;;;14.65;36.19
10135;BME280;5107;48.850;8.924;2023-04-10T09:32:12;97221.75;;;15.32;35.93
10135;BME280;5107;48.850;8.924;2023-04-10T09:35:04;97209.25;;;15.62;35.52
10135;BME280;5107;48.850;8.924;2023-04-10T09:37:34;97207.75;;;15.38;35.81
10135;BME280;5107;48.850;8.924;2023-04-10T09:40:01;97212.28;;;15.59;34.37
10135;BME280;5107;48.850;8.924;2023-04-10T09:42:39;97205.72;;;15.76;35.42
10135;BME280;5107;48.850;8.924;2023-04-10T09:45:04;97195.16;;;16.31;33.82
10135;BME280;5107;48.850;8.924;2023-04-10T09:47:31;97198.13;;;16.50;33.53
10135;BME280;5107;48.850;8.924;2023-04-10T09:49:59;97188.41;;;16.57;33.77
10135;BME280;5107;48.850;8.924;2023-04-10T09:52:30;97190.16;;;16.78;32.71
10135;BME280;5107;48.850;8.924;2023-04-10T09:54:57;97190.31;;;16.42;33.63
10135;BME280;5107;48.850;8.924;2023-04-10T09:57:26;97181.66;;;15.41;34.73
10135;BME280;5107;48.850;8.924;2023-04-10T09:59:56;97174.44;;;15.92;34.48
10135;BME280;5107;48.850;8.924;2023-04-10T10:02:23;97172.66;;;16.27;35.37
10135;BME280;5107;48.850;8.924;2023-04-10T10:04:50;97165.72;;;16.95;32.23
10135;BME280;5107;48.850;8.924;2023-04-10T10:07:17;97163.78;;;17.24;32.31
10135;BME280;5107;48.850;8.924;2023-04-10T10:09:45;97152.22;;;16.97;32.35
10135;BME280;5107;48.850;8.924;2023-04-10T10:12:12;97147.59;;;16.64;33.69
10135;BME280;5107;48.850;8.924;2023-04-10T10:14:48;97153.69;;;16.03;32.86
10135;BME280;5107;48.850;8.924;2023-04-10T10:17:17;97146.44;;;16.52;31.66
10135;BME280;5107;48.850;8.924;2023-04-10T10:19:52;97147.41;;;16.38;32.74
10135;BME280;5107;48.850;8.924;2023-04-10T10:22:24;97129.84;;;16.78;32.81
10135;BME280;5107;48.850;8.924;2023-04-10T10:24:51;97129.38;;;16.68;32.23
10135;BME280;5107;48.850;8.924;2023-04-10T10:27:21;97127.28;;;16.57;32.26
10135;BME280;5107;48.850;8.924;2023-04-10T10:29:48;97122.09;;;16.49;32.51
10135;BME280;5107;48.850;8.924;2023-04-10T10:32:16;97118.88;;;17.07;31.93
10135;BME280;5107;48.850;8.924;2023-04-10T10:34:43;97117.31;;;17.20;31.34
10135;BME280;5107;48.850;8.924;2023-04-10T10:37:08;97110.78;;;17.29;31.72
10135;BME280;5107;48.850;8.924;2023-04-10T10:40:04;97110.50;;;16.97;31.90
10135;BME280;5107;48.850;8.924;2023-04-10T10:42:37;97100.09;;;17.16;31.50
10135;BME280;5107;48.850;8.924;2023-04-10T10:45:17;97106.88;;;17.25;30.70
10135;BME280;5107;48.850;8.924;2023-04-10T10:47:49;97101.78;;;17.30;30.98
10135;BME280;5107;48.850;8.924;2023-04-10T10:50:15;97101.59;;;17.51;30.76
10135;BME280;5107;48.850;8.924;2023-04-10T10:52:54;97100.22;;;16.81;32.05
10135;BME280;5107;48.850;8.924;2023-04-10T10:57:47;97106.03;;;17.24;30.78
10135;BME280;5107;48.850;8.924;2023-04-10T11:00:14;97095.81;;;17.21;32.12
10135;BME280;5107;48.850;8.924;2023-04-10T11:02:40;97093.59;;;17.58;31.29
10135;BME280;5107;48.850;8.924;2023-04-10T11:05:06;97092.63;;;17.72;30.65
10135;BME280;5107;48.850;8.924;2023-04-10T11:13:28;97080.31;;;18.04;30.24
10135;BME280;5107;48.850;8.924;2023-04-10T11:15:57;97078.81;;;18.28;29.73
10135;BME280;5107;48.850;8.924;2023-04-10T11:21:14;97076.34;;;18.26;29.03
10135;BME280;5107;48.850;8.924;2023-04-10T11:31:47;97082.59;;;18.71;28.45
10135;BME280;5107;48.850;8.924;2023-04-10T11:34:19;97074.63;;;18.65;27.48
10135;BME280;5107;48.850;8.924;2023-04-10T11:36:44;97067.09;;;18.48;27.70
10135;BME280;5107;48.850;8.924;2023-04-10T11:39:12;97067.19;;;18.80;29.58
10135;BME280;5107;48.850;8.924;2023-04-10T11:41:41;97066.66;;;18.65;27.27
10135;BME280;5107;48.850;8.924;2023-04-10T11:44:11;97060.69;;;19.01;26.83
10135;BME280;5107;48.850;8.924;2023-04-10T11:46:44;97051.72;;;18.44;25.88
10135;BME280;5107;48.850;8.924;2023-04-10T11:49:16;97046.75;;;18.54;26.29
10135;BME280;5107;48.850;8.924;2023-04-10T11:51:44;97048.94;;;18.77;25.45
10135;BME280;5107;48.850;8.924;2023-04-10T11:54:12;97041.53;;;18.79;25.93
10135;BME280;5107;48.850;8.924;2023-04-10T11:56:39;97026.53;;;18.84;25.16
10135;BME280;5107;48.850;8.924;2023-04-10T11:59:05;97027.28;;;19.29;26.04
10135;BME280;5107;48.850;8.924;2023-04-10T12:01:44;97022.38;;;18.95;25.66
10135;BME280;5107;48.850;8.924;2023-04-10T12:04:17;97010.47;;;18.53;26.85
10135;BME280;5107;48.850;8.924;2023-04-10T12:06:54;97016.19;;;18.63;26.51
10135;BME280;5107;48.850;8.924;2023-04-10T12:09:20;97018.41;;;19.04;25.19
10135;BME280;5107;48.850;8.924;2023-04-10T12:11:57;97016.91;;;19.15;24.82
10135;BME280;5107;48.850;8.924;2023-04-10T12:14:47;97021.94;;;19.29;24.72
10135;BME280;5107;48.850;8.924;2023-04-10T12:17:13;97008.19;;;19.57;25.63
10135;BME280;5107;48.850;8.924;2023-04-10T12:19:39;97010.56;;;19.09;25.03
10135;BME280;5107;48.850;8.924;2023-04-10T12:22:04;97010.66;;;18.96;25.20
10135;BME280;5107;48.850;8.924;2023-04-10T12:24:47;97001.53;;;18.79;25.39
10135;BME280;5107;48.850;8.924;2023-04-10T12:29:45;96996.47;;;18.71;25.71
10135;BME280;5107;48.850;8.924;2023-04-10T12:32:11;96997.13;;;18.98;25.38
10135;BME280;5107;48.850;8.924;2023-04-10T12:34:37;96999.59;;;18.99;26.18
10135;BME280;5107;48.850;8.924;2023-04-10T12:37:02;96995.38;;;18.34;25.99
10135;BME280;5107;48.850;8.924;2023-04-10T12:39:28;96992.09;;;18.38;26.26
10135;BME280;5107;48.850;8.924;2023-04-10T12:42:10;96974.13;;;18.20;26.19
10135;BME280;5107;48.850;8.924;2023-04-10T12:44:48;96977.69;;;17.95;26.50
10135;BME280;5107;48.850;8.924;2023-04-10T12:47:14;96982.75;;;18.16;28.42
10135;BME280;5107;48.850;8.924;2023-04-10T12:49:39;96980.31;;;18.66;26.23
10135;BME280;5107;48.850;8.924;2023-04-10T12:52:05;96977.13;;;18.82;26.16
10135;BME280;5107;48.850;8.924;2023-04-10T12:54:32;96971.97;;;18.42;26.14
10135;BME280;5107;48.850;8.924;2023-04-10T12:56:58;96973.34;;;18.51;25.84
10135;BME280;5107;48.850;8.924;2023-04-10T12:59:24;96966.63;;;18.49;26.01
10135;BME280;5107;48.850;8.924;2023-04-10T13:01:51;96954.25;;;18.23;26.22
10135;BME280;5107;48.850;8.924;2023-04-10T13:04:16;96957.50;;;18.70;26.51
10135;BME280;5107;48.850;8.924;2023-04-10T13:06:46;96959.66;;;18.41;26.65
10135;BME280;5107;48.850;8.924;2023-04-10T13:09:12;96963.72;;;18.57;27.36
10135;BME280;5107;48.850;8.924;2023-04-10T13:11:38;96957.91;;;18.73;26.59
10135;BME280;5107;48.850;8.924;2023-04-10T13:14:03;96940.72;;;18.94;25.35
10135;BME280;5107;48.850;8.924;2023-04-10T13:16:29;96936.53;;;19.29;25.92
10135;BME280;5107;48.850;8.924;2023-04-10T13:18:55;96948.13;;;18.54;26.88
10135;BME280;5107;48.850;8.924;2023-04-10T13:21:20;96939.06;;;19.00;26.70
10135;BME280;5107;48.850;8.924;2023-04-10T13:23:50;96938.41;;;18.73;26.04
10135;BME280;5107;48.850;8.924;2023-04-10T13:26:15;96941.00;;;19.11;26.21
10135;BME280;5107;48.850;8.924;2023-04-10T13:28:40;96944.31;;;19.31;26.55
10135;BME280;5107;48.850;8.924;2023-04-10T13:31:06;96941.44;;;18.76;26.91
10135;BME280;5107;48.850;8.924;2023-04-10T13:33:31;96931.06;;;19.18;26.88
10135;BME280;5107;48.850;8.924;2023-04-10T13:35:56;96923.78;;;19.31;26.69
10135;BME280;5107;48.850;8.924;2023-04-10T13:38:22;96920.31;;;19.06;26.50
10135;BME280;5107;48.850;8.924;2023-04-10T13:40:47;96914.28;;;19.36;26.34
10135;BME280;5107;48.850;8.924;2023-04-10T13:43:12;96910.06;;;19.28;26.59
10135;BME280;5107;48.850;8.924;2023-04-10T13:45:38;96907.06;;;19.18;26.19
10135;BME280;5107;48.850;8.924;2023-04-10T13:48:03;96908.56;;;18.58;26.69
10135;BME280;5107;48.850;8.924;2023-04-10T13:50:31;96912.97;;;18.39;26.80
10135;BME280;5107;48.850;8.924;2023-04-10T13:52:57;96904.75;;;18.34;26.64